createdAt,value
2019-03-18T00:00:16.958Z,0
2019-03-18T00:01:17.716Z,0
2019-03-18T00:02:18.192Z,0
2019-03-18T00:03:18.736Z,0
2019-03-18T00:04:19.225Z,0
2019-03-18T00:05:19.979Z,0
2019-03-18T00:06:20.914Z,0
2019-03-18T00:07:21.456Z,0
2019-03-18T00:08:22.849Z,0
2019-03-18T00:09:24.155Z,0
2019-03-18T00:10:24.349Z,0
2019-03-18T00:11:24.826Z,0
2019-03-18T00:12:25.922Z,0
2019-03-18T00:13:25.951Z,0
2019-03-18T00:14:26.483Z,0
2019-03-18T00:15:28.172Z,0
2019-03-18T00:16:28.637Z,0
2019-03-18T00:17:29.944Z,0
2019-03-18T00:18:29.417Z,0
2019-03-18T00:19:30.172Z,0
2019-03-18T00:20:30.924Z,0
2019-03-18T00:21:31.424Z,0
2019-03-18T00:22:32.478Z,0
2019-03-18T00:23:33.509Z,0
2019-03-18T00:24:34.256Z,0
2019-03-18T00:25:34.453Z,0
2019-03-18T00:26:34.814Z,0
2019-03-18T00:27:35.569Z,0
2019-03-18T00:28:36.050Z,0
2019-03-18T00:29:37.631Z,0
2019-03-18T00:30:37.120Z,0
2019-03-18T00:31:37.350Z,0
2019-03-18T00:32:38.103Z,0
2019-03-18T00:33:38.648Z,0
2019-03-18T00:34:39.680Z,0
2019-03-18T00:35:40.708Z,0
2019-03-18T00:36:40.368Z,0
2019-03-18T00:37:41.130Z,0
2019-03-18T00:38:41.957Z,0
2019-03-18T00:39:42.154Z,0
2019-03-18T00:40:42.629Z,0
2019-03-18T00:41:43.102Z,0
2019-03-18T00:42:43.862Z,0
2019-03-18T00:43:44.335Z,0
2019-03-18T00:44:44.867Z,0
2019-03-18T00:45:45.935Z,0
2019-03-18T00:46:47.000Z,0
2019-03-18T00:47:48.319Z,0
2019-03-18T00:48:48.801Z,0
2019-03-18T00:49:49.554Z,0
2019-03-18T00:50:49.758Z,0
2019-03-18T00:51:49.949Z,0
2019-03-18T00:52:50.432Z,0
2019-03-18T00:53:51.179Z,0
2019-03-18T00:54:52.553Z,0
2019-03-18T00:55:54.518Z,0
2019-03-18T00:56:55.030Z,0
2019-03-18T00:57:55.057Z,0
2019-03-18T00:58:56.103Z,0
2019-03-18T00:59:56.853Z,0
2019-03-18T01:00:57.897Z,0
2019-03-18T01:01:58.655Z,0
2019-03-18T01:02:59.406Z,0
2019-03-18T01:03:59.638Z,0
2019-03-18T01:05:01.017Z,0
2019-03-18T01:06:01.769Z,0
2019-03-18T01:07:02.722Z,0
2019-03-18T01:08:03.565Z,0
2019-03-18T01:09:04.044Z,0
2019-03-18T01:10:04.802Z,0
2019-03-18T01:11:05.850Z,0
2019-03-18T01:12:06.321Z,0
2019-03-18T01:13:06.793Z,0
2019-03-18T01:14:07.572Z,0
2019-03-18T01:15:08.611Z,0
2019-03-18T01:16:08.806Z,0
2019-03-18T01:17:10.295Z,0
2019-03-18T01:18:10.764Z,0
2019-03-18T01:19:11.515Z,0
2019-03-18T01:20:13.108Z,0
2019-03-18T01:21:12.920Z,0
2019-03-18T01:22:13.120Z,0
2019-03-18T01:23:13.597Z,0
2019-03-18T01:24:14.360Z,0
2019-03-18T01:25:15.119Z,0
2019-03-18T01:26:15.601Z,0
2019-03-18T01:27:16.108Z,0
2019-03-18T01:28:16.595Z,0
2019-03-18T01:29:17.070Z,0
2019-03-18T01:30:17.883Z,0
2019-03-18T01:31:18.355Z,0
2019-03-18T01:32:19.383Z,0
2019-03-18T01:33:20.420Z,0
2019-03-18T01:34:21.196Z,0
2019-03-18T01:35:21.942Z,0
2019-03-18T01:36:22.976Z,0
2019-03-18T01:37:23.514Z,0
2019-03-18T01:38:23.709Z,0
2019-03-18T01:39:23.918Z,0
2019-03-18T01:40:24.405Z,0
2019-03-18T01:41:25.194Z,0
2019-03-18T01:42:25.404Z,0
2019-03-18T01:43:25.881Z,0
2019-03-18T01:44:26.911Z,0
2019-03-18T01:45:43.044Z,0
2019-03-18T01:45:50.157Z,0
2019-03-18T01:46:48.387Z,0
2019-03-18T01:47:49.137Z,0
2019-03-18T01:48:49.932Z,0
2019-03-18T01:49:51.250Z,0
2019-03-18T01:50:51.284Z,0
2019-03-18T01:51:51.588Z,0
2019-03-18T01:52:52.351Z,0
2019-03-18T01:53:53.384Z,0
2019-03-18T01:54:54.412Z,0
2019-03-18T01:55:54.600Z,0
2019-03-18T01:56:55.233Z,0
2019-03-18T01:57:56.273Z,0
2019-03-18T01:58:57.038Z,0
2019-03-18T01:59:58.347Z,0
2019-03-18T02:00:58.675Z,0
2019-03-18T02:01:59.722Z,0
2019-03-18T02:02:59.922Z,0
2019-03-18T02:04:00.951Z,0
2019-03-18T02:05:01.706Z,0
2019-03-18T02:06:02.460Z,0
2019-03-18T02:07:02.655Z,0
2019-03-18T02:08:03.974Z,0
2019-03-18T02:09:04.746Z,0
2019-03-18T02:10:05.526Z,0
2019-03-18T02:11:06.021Z,0
2019-03-18T02:12:06.218Z,0
2019-03-18T02:13:07.251Z,0
2019-03-18T02:14:08.008Z,0
2019-03-18T02:15:09.325Z,0
2019-03-18T02:16:09.358Z,0
2019-03-18T02:17:10.702Z,0
2019-03-18T02:18:10.740Z,0
2019-03-18T02:19:10.945Z,0
2019-03-18T02:20:11.971Z,0
2019-03-18T02:21:12.795Z,0
2019-03-18T02:22:13.891Z,0
2019-03-18T02:23:14.763Z,0
2019-03-18T02:24:14.974Z,0
2019-03-18T02:25:15.199Z,0
2019-03-18T02:26:16.240Z,0
2019-03-18T02:27:16.925Z,0
2019-03-18T02:28:17.488Z,0
2019-03-18T02:29:18.832Z,0
2019-03-18T02:30:20.725Z,0
2019-03-18T02:31:21.327Z,0
2019-03-18T02:32:20.815Z,0
2019-03-18T02:33:23.097Z,0
2019-03-18T02:34:23.133Z,0
2019-03-18T02:35:24.023Z,0
2019-03-18T02:36:25.370Z,0
2019-03-18T02:37:25.591Z,0
2019-03-18T02:38:26.973Z,0
2019-03-18T02:39:27.391Z,0
2019-03-18T02:40:27.737Z,0
2019-03-18T02:41:28.788Z,0
2019-03-18T02:42:30.671Z,0
2019-03-18T02:43:31.037Z,0
2019-03-18T02:44:31.924Z,0
2019-03-18T02:45:32.276Z,0
2019-03-18T02:46:33.321Z,0
2019-03-18T02:47:34.116Z,0
2019-03-18T02:48:34.717Z,0
2019-03-18T02:49:35.037Z,0
2019-03-18T02:50:35.087Z,0
2019-03-18T02:51:36.420Z,0
2019-03-18T02:52:36.666Z,0
2019-03-18T02:53:38.343Z,0
2019-03-18T02:54:39.498Z,0
2019-03-18T02:55:39.886Z,0
2019-03-18T02:56:39.930Z,0
2019-03-18T02:57:41.112Z,0
2019-03-18T02:58:42.175Z,0
2019-03-18T02:59:42.541Z,0
2019-03-18T03:00:42.918Z,0
2019-03-18T03:01:43.241Z,0
2019-03-18T03:02:45.164Z,0
2019-03-18T03:03:45.516Z,0
2019-03-18T03:04:46.842Z,0
2019-03-18T03:05:48.292Z,0
2019-03-18T03:06:48.088Z,0
2019-03-18T03:07:48.860Z,0
2019-03-18T03:08:50.033Z,0
2019-03-18T03:09:50.397Z,0
2019-03-18T03:10:51.168Z,0
2019-03-18T03:11:52.219Z,0
2019-03-18T03:12:53.285Z,0
2019-03-18T03:13:54.664Z,0
2019-03-18T03:14:55.275Z,0
2019-03-18T03:15:55.686Z,0
2019-03-18T03:16:56.077Z,0
2019-03-18T03:17:57.440Z,0
2019-03-18T03:18:58.353Z,0
2019-03-18T03:19:59.243Z,0
2019-03-18T03:20:59.845Z,0
2019-03-18T03:22:00.893Z,0
2019-03-18T03:23:01.943Z,0
2019-03-18T03:24:02.964Z,0
2019-03-18T03:25:03.446Z,0
2019-03-18T03:26:04.082Z,0
2019-03-18T03:27:04.430Z,0
2019-03-18T03:28:04.783Z,0
2019-03-18T03:29:05.172Z,0
2019-03-18T03:30:06.641Z,0
2019-03-18T03:31:07.948Z,0
2019-03-18T03:32:07.378Z,0
2019-03-18T03:33:08.860Z,0
2019-03-18T03:34:18.265Z,0
2019-03-18T03:35:20.631Z,0
2019-03-18T03:36:20.562Z,0
2019-03-18T03:37:20.641Z,0
2019-03-18T03:38:20.979Z,0
2019-03-18T03:39:21.918Z,0
2019-03-18T03:40:22.803Z,0
2019-03-18T03:41:23.206Z,0
2019-03-18T03:42:24.858Z,0
2019-03-18T03:43:25.012Z,0
2019-03-18T03:44:26.413Z,0
2019-03-18T03:45:26.947Z,0
2019-03-18T03:46:49.460Z,0
2019-03-18T03:47:49.242Z,0
2019-03-18T03:48:51.131Z,0
2019-03-18T03:49:51.744Z,0
2019-03-18T03:50:51.559Z,0
2019-03-18T03:51:51.897Z,0
2019-03-18T03:52:54.064Z,0
2019-03-18T03:53:54.958Z,0
2019-03-18T03:54:55.844Z,0
2019-03-18T03:55:57.024Z,0
2019-03-18T03:56:56.811Z,0
2019-03-18T03:57:57.938Z,0
2019-03-18T03:58:59.539Z,0
2019-03-18T03:59:59.324Z,0
2019-03-18T04:01:00.197Z,0
2019-03-18T04:02:00.847Z,0
2019-03-18T04:03:02.178Z,0
2019-03-18T04:04:02.859Z,0
2019-03-18T04:05:02.979Z,0
2019-03-18T04:06:04.659Z,0
2019-03-18T04:07:05.285Z,0
2019-03-18T04:08:06.123Z,0
2019-03-18T04:09:06.615Z,0
2019-03-18T04:10:07.974Z,0
2019-03-18T04:11:11.957Z,0
2019-03-18T04:12:12.856Z,0
2019-03-18T04:13:13.189Z,0
2019-03-18T04:14:12.958Z,0
2019-03-18T04:15:14.979Z,0
2019-03-18T04:16:15.334Z,0
2019-03-18T04:17:16.659Z,0
2019-03-18T04:18:16.578Z,0
2019-03-18T04:19:18.258Z,0
2019-03-18T04:20:18.936Z,0
2019-03-18T04:21:19.543Z,0
2019-03-18T04:22:20.969Z,0
2019-03-18T04:23:21.291Z,0
2019-03-18T04:24:22.355Z,0
2019-03-18T04:25:23.958Z,0
2019-03-18T04:26:23.442Z,0
2019-03-18T04:27:27.226Z,0
2019-03-18T04:28:28.072Z,0
2019-03-18T04:29:29.673Z,0
2019-03-18T04:30:30.591Z,0
2019-03-18T04:31:31.207Z,0
2019-03-18T04:32:31.599Z,0
2019-03-18T04:33:32.926Z,0
2019-03-18T04:34:33.791Z,0
2019-03-18T04:35:35.671Z,0
2019-03-18T04:36:36.347Z,0
2019-03-18T04:37:36.943Z,0
2019-03-18T04:38:37.996Z,0
2019-03-18T04:39:39.036Z,0
2019-03-18T04:40:39.581Z,0
2019-03-18T04:41:40.638Z,0
2019-03-18T04:42:40.865Z,0
2019-03-18T04:43:41.625Z,0
2019-03-18T04:44:41.841Z,0
2019-03-18T04:45:44.355Z,0
2019-03-18T04:46:44.831Z,0
2019-03-18T04:47:45.315Z,0
2019-03-18T04:48:46.527Z,0
2019-03-18T04:49:47.131Z,0
2019-03-18T04:50:47.605Z,0
2019-03-18T04:51:48.361Z,0
2019-03-18T04:52:48.831Z,0
2019-03-18T04:53:49.589Z,0
2019-03-18T04:54:50.619Z,0
2019-03-18T04:55:51.159Z,0
2019-03-18T04:56:51.358Z,0
2019-03-18T04:57:51.844Z,0
2019-03-18T04:58:52.761Z,0
2019-03-18T04:59:53.514Z,0
2019-03-18T05:00:54.268Z,0
2019-03-18T05:01:54.745Z,0
2019-03-18T05:02:55.500Z,0
2019-03-18T05:03:55.700Z,0
2019-03-18T05:04:56.739Z,0
2019-03-18T05:05:57.537Z,0
2019-03-18T05:06:58.015Z,0
2019-03-18T05:07:58.769Z,0
2019-03-18T05:08:58.982Z,0
2019-03-18T05:09:59.460Z,0
2019-03-18T05:11:00.253Z,0
2019-03-18T05:12:00.723Z,0
2019-03-18T05:13:01.481Z,0
2019-03-18T05:14:02.337Z,0
2019-03-18T05:15:03.380Z,0
2019-03-18T05:16:03.968Z,0
2019-03-18T05:17:04.998Z,0
2019-03-18T05:18:05.493Z,0
2019-03-18T05:19:06.739Z,0
2019-03-18T05:20:07.491Z,0
2019-03-18T05:21:08.535Z,0
2019-03-18T05:22:09.034Z,0
2019-03-18T05:23:09.800Z,0
2019-03-18T05:24:09.998Z,0
2019-03-18T05:25:11.137Z,0
2019-03-18T05:26:11.336Z,0
2019-03-18T05:27:12.100Z,0
2019-03-18T05:28:13.416Z,0
2019-03-18T05:29:13.626Z,0
2019-03-18T05:30:14.402Z,0
2019-03-18T05:31:14.437Z,0
2019-03-18T05:32:15.506Z,0
2019-03-18T05:33:16.543Z,5.63
2019-03-18T05:34:16.816Z,5.63
2019-03-18T05:35:17.408Z,5.63
2019-03-18T05:36:17.613Z,5.63
2019-03-18T05:37:18.680Z,5.63
2019-03-18T05:38:19.714Z,5.63
2019-03-18T05:39:19.566Z,5.63
2019-03-18T05:40:20.379Z,5.63
2019-03-18T05:41:21.213Z,5.63
2019-03-18T05:42:21.419Z,5.63
2019-03-18T05:43:21.973Z,5.63
2019-03-18T05:44:22.807Z,11.25
2019-03-18T05:45:23.010Z,11.25
2019-03-18T05:46:23.767Z,11.25
2019-03-18T05:47:23.964Z,11.25
2019-03-18T05:48:24.719Z,11.25
2019-03-18T05:49:25.083Z,11.25
2019-03-18T05:50:25.871Z,11.25
2019-03-18T05:51:26.460Z,16.88
2019-03-18T05:52:26.941Z,16.88
2019-03-18T05:53:27.698Z,16.88
2019-03-18T05:54:28.451Z,16.88
2019-03-18T05:55:28.948Z,16.88
2019-03-18T05:56:29.429Z,16.88
2019-03-18T05:57:29.979Z,16.88
2019-03-18T05:58:30.804Z,22.5
2019-03-18T05:59:31.245Z,22.5
2019-03-18T06:00:32.276Z,22.5
2019-03-18T06:01:33.591Z,22.5
2019-03-18T06:02:32.795Z,28.13
2019-03-18T06:03:33.829Z,28.13
2019-03-18T06:04:34.308Z,28.13
2019-03-18T06:05:35.358Z,28.13
2019-03-18T06:06:36.116Z,28.13
2019-03-18T06:07:36.879Z,28.13
2019-03-18T06:08:38.235Z,28.13
2019-03-18T06:09:39.344Z,28.13
2019-03-18T06:10:39.410Z,28.13
2019-03-18T06:11:39.932Z,33.75
2019-03-18T06:12:41.179Z,33.75
2019-03-18T06:13:40.659Z,33.75
2019-03-18T06:14:41.545Z,33.75
2019-03-18T06:15:42.036Z,33.75
2019-03-18T06:16:42.522Z,33.75
2019-03-18T06:17:55.170Z,33.75
2019-03-18T06:18:53.548Z,39.38
2019-03-18T06:19:54.035Z,39.38
2019-03-18T06:20:54.522Z,39.38
2019-03-18T06:21:55.908Z,39.38
2019-03-18T06:22:56.665Z,39.38
2019-03-18T06:23:57.464Z,39.38
2019-03-18T06:24:57.782Z,45
2019-03-18T06:25:59.335Z,45
2019-03-18T06:26:58.827Z,50.63
2019-03-18T06:27:59.031Z,50.63
2019-03-18T06:28:59.977Z,50.63
2019-03-18T06:30:00.668Z,50.63
2019-03-18T06:31:01.722Z,50.63
2019-03-18T06:32:02.206Z,45
2019-03-18T06:33:02.713Z,45
2019-03-18T06:34:03.483Z,45
2019-03-18T06:35:04.247Z,45
2019-03-18T06:36:05.291Z,45
2019-03-18T06:37:06.330Z,45
2019-03-18T06:38:07.393Z,50.63
2019-03-18T06:39:08.565Z,50.63
2019-03-18T06:40:10.132Z,50.63
2019-03-18T06:41:11.063Z,50.63
2019-03-18T06:42:10.728Z,56.25
2019-03-18T06:43:11.516Z,56.25
2019-03-18T06:44:12.304Z,56.25
2019-03-18T06:45:14.767Z,56.25
2019-03-18T06:46:14.281Z,56.25
2019-03-18T06:47:15.323Z,56.25
2019-03-18T06:48:15.833Z,56.25
2019-03-18T06:49:16.112Z,56.25
2019-03-18T06:50:16.980Z,56.25
2019-03-18T06:51:18.019Z,56.25
2019-03-18T06:52:18.309Z,56.25
2019-03-18T06:53:19.568Z,50.63
2019-03-18T06:54:19.673Z,50.63
2019-03-18T06:55:20.170Z,50.63
2019-03-18T06:56:20.934Z,50.63
2019-03-18T06:57:22.535Z,50.63
2019-03-18T06:58:21.749Z,50.63
2019-03-18T06:59:22.562Z,56.25
2019-03-18T07:00:23.399Z,56.25
2019-03-18T07:01:24.166Z,56.25
2019-03-18T07:02:24.459Z,56.25
2019-03-18T07:03:25.002Z,61.88
2019-03-18T07:04:25.206Z,67.5
2019-03-18T07:05:25.741Z,73.13
2019-03-18T07:06:27.422Z,73.13
2019-03-18T07:07:26.921Z,67.5
2019-03-18T07:08:28.281Z,67.5
2019-03-18T07:09:28.502Z,61.88
2019-03-18T07:10:29.266Z,61.88
2019-03-18T07:11:30.243Z,61.88
2019-03-18T07:12:32.277Z,67.5
2019-03-18T07:13:32.890Z,73.13
2019-03-18T07:14:33.665Z,78.75
2019-03-18T07:15:35.079Z,84.38
2019-03-18T07:16:40.138Z,90
2019-03-18T07:16:47.345Z,90
2019-03-18T07:17:45.968Z,90
2019-03-18T07:18:46.166Z,95.63
2019-03-18T07:19:47.300Z,106.88
2019-03-18T07:20:47.804Z,118.13
2019-03-18T07:21:48.017Z,123.75
2019-03-18T07:22:48.603Z,135
2019-03-18T07:23:51.139Z,146.25
2019-03-18T07:24:49.915Z,151.88
2019-03-18T07:26:03.212Z,163.13
2019-03-18T07:27:04.211Z,168.75
2019-03-18T07:28:01.540Z,174.38
2019-03-18T07:29:02.043Z,180
2019-03-18T07:30:03.107Z,174.38
2019-03-18T07:31:04.164Z,174.38
2019-03-18T07:32:05.134Z,174.38
2019-03-18T07:33:06.758Z,180
2019-03-18T07:34:06.304Z,174.38
2019-03-18T07:35:06.788Z,174.38
2019-03-18T07:36:07.342Z,180
2019-03-18T07:37:07.953Z,180
2019-03-18T07:38:10.232Z,185.63
2019-03-18T07:39:09.454Z,185.63
2019-03-18T07:40:26.483Z,180
2019-03-18T07:41:05.250Z,185.63
2019-03-18T07:41:17.495Z,185.63
2019-03-18T07:41:23.934Z,185.63
2019-03-18T07:42:24.290Z,196.88
2019-03-18T07:43:23.129Z,202.5
2019-03-18T07:44:26.718Z,213.75
2019-03-18T07:45:25.691Z,219.38
2019-03-18T07:46:27.166Z,230.63
2019-03-18T07:47:30.203Z,236.25
2019-03-18T07:48:38.070Z,241.88
2019-03-18T07:49:38.671Z,241.88
2019-03-18T07:50:40.003Z,241.88
2019-03-18T07:51:39.487Z,241.88
2019-03-18T07:52:39.979Z,230.63
2019-03-18T07:53:40.409Z,219.38
2019-03-18T07:54:41.746Z,213.75
2019-03-18T07:55:42.403Z,202.5
2019-03-18T07:56:43.622Z,196.88
2019-03-18T07:57:44.534Z,185.63
2019-03-18T07:58:50.244Z,174.38
2019-03-18T07:59:01.307Z,174.38
2019-03-18T07:59:11.462Z,168.75
2019-03-18T07:59:59.555Z,157.5
2019-03-18T08:00:59.575Z,151.88
2019-03-18T08:01:58.499Z,140.63
2019-03-18T08:03:03.182Z,140.63
2019-03-18T08:04:00.407Z,140.63
2019-03-18T08:05:00.918Z,135
2019-03-18T08:06:01.688Z,135
2019-03-18T08:07:01.911Z,140.63
2019-03-18T08:08:02.404Z,146.25
2019-03-18T08:09:02.905Z,151.88
2019-03-18T08:10:03.698Z,151.88
2019-03-18T08:11:04.801Z,157.5
2019-03-18T08:12:05.299Z,157.5
2019-03-18T08:13:05.787Z,157.5
2019-03-18T08:14:06.873Z,146.25
2019-03-18T08:15:07.639Z,129.38
2019-03-18T08:16:07.850Z,118.13
2019-03-18T08:17:08.914Z,112.5
2019-03-18T08:18:09.682Z,118.13
2019-03-18T08:19:09.999Z,123.75
2019-03-18T08:20:10.221Z,140.63
2019-03-18T08:21:11.144Z,151.88
2019-03-18T08:22:11.931Z,168.75
2019-03-18T08:23:12.425Z,196.88
2019-03-18T08:24:12.921Z,213.75
2019-03-18T08:25:14.713Z,219.38
2019-03-18T08:26:14.207Z,213.75
2019-03-18T08:27:14.698Z,202.5
2019-03-18T08:28:15.464Z,174.38
2019-03-18T08:29:17.727Z,157.5
2019-03-18T08:30:17.525Z,157.5
2019-03-18T08:31:17.800Z,140.63
2019-03-18T08:32:18.577Z,123.75
2019-03-18T08:33:22.684Z,123.75
2019-03-18T08:34:21.456Z,123.75
2019-03-18T08:35:21.953Z,140.63
2019-03-18T08:36:22.437Z,151.88
2019-03-18T08:37:36.873Z,180
2019-03-18T08:38:37.599Z,196.88
2019-03-18T08:39:38.770Z,213.75
2019-03-18T08:40:41.198Z,230.63
2019-03-18T08:40:50.704Z,236.25
2019-03-18T08:41:00.939Z,230.63
2019-03-18T08:41:10.573Z,236.25
2019-03-18T08:41:21.789Z,236.25
2019-03-18T08:41:31.350Z,236.25
2019-03-18T08:41:41.238Z,236.25
2019-03-18T08:41:49.777Z,236.25
2019-03-18T08:43:04.082Z,230.63
2019-03-18T08:43:33.384Z,230.63
2019-03-18T08:43:41.783Z,230.63
2019-03-18T08:44:41.479Z,241.88
2019-03-18T08:45:39.252Z,247.5
2019-03-18T08:46:39.746Z,275.63
2019-03-18T08:47:40.523Z,286.88
2019-03-18T08:48:41.287Z,298.13
2019-03-18T08:49:41.578Z,303.75
2019-03-18T08:50:42.345Z,292.5
2019-03-18T08:51:42.834Z,275.63
2019-03-18T08:52:43.664Z,309.38
2019-03-18T08:53:44.878Z,309.38
2019-03-18T08:54:50.327Z,303.75
2019-03-18T08:54:58.285Z,303.75
2019-03-18T08:55:57.830Z,298.13
2019-03-18T08:57:02.671Z,298.13
2019-03-18T08:57:09.633Z,298.13
2019-03-18T08:58:11.116Z,343.13
2019-03-18T08:59:10.594Z,388.13
2019-03-18T09:00:10.699Z,393.75
2019-03-18T09:01:11.480Z,225
2019-03-18T09:02:12.004Z,196.88
2019-03-18T09:03:13.659Z,185.63
2019-03-18T09:04:14.439Z,185.63
2019-03-18T09:05:14.940Z,185.63
2019-03-18T09:06:16.551Z,202.5
2019-03-18T09:07:17.280Z,241.88
2019-03-18T09:08:17.497Z,275.63
2019-03-18T09:09:17.987Z,281.25
2019-03-18T09:10:19.393Z,292.5
2019-03-18T09:11:19.441Z,331.88
2019-03-18T09:12:20.207Z,399.38
2019-03-18T09:13:21.268Z,714.38
2019-03-18T09:14:22.315Z,579.38
2019-03-18T09:15:23.641Z,579.38
2019-03-18T09:16:24.422Z,646.88
2019-03-18T09:17:25.478Z,708.75
2019-03-18T09:18:26.004Z,725.63
2019-03-18T09:19:26.513Z,736.88
2019-03-18T09:20:27.576Z,686.25
2019-03-18T09:21:27.786Z,585
2019-03-18T09:22:28.552Z,601.88
2019-03-18T09:23:28.762Z,556.88
2019-03-18T09:24:29.885Z,382.5
2019-03-18T09:25:29.976Z,421.88
2019-03-18T09:26:31.310Z,388.13
2019-03-18T09:27:31.863Z,253.13
2019-03-18T09:28:32.146Z,163.13
2019-03-18T09:29:48.762Z,157.5
2019-03-18T09:29:56.863Z,151.88
2019-03-18T09:30:56.512Z,135
2019-03-18T09:31:55.403Z,101.25
2019-03-18T09:32:57.011Z,73.13
2019-03-18T09:33:56.832Z,56.25
2019-03-18T09:34:57.853Z,45
2019-03-18T09:36:10.100Z,45
2019-03-18T09:37:08.776Z,78.75
2019-03-18T09:38:09.816Z,90
2019-03-18T09:39:21.954Z,73.13
2019-03-18T09:40:20.751Z,50.63
2019-03-18T09:41:21.260Z,45
2019-03-18T09:42:22.029Z,39.38
2019-03-18T09:43:27.402Z,56.25
2019-03-18T09:44:23.893Z,67.5
2019-03-18T09:45:25.599Z,67.5
2019-03-18T09:46:36.124Z,78.75
2019-03-18T09:47:37.428Z,78.75
2019-03-18T09:48:35.883Z,90
2019-03-18T09:49:36.640Z,90
2019-03-18T09:50:37.417Z,90
2019-03-18T09:51:40.803Z,101.25
2019-03-18T09:52:39.283Z,118.13
2019-03-18T09:53:40.045Z,118.13
2019-03-18T09:54:40.532Z,101.25
2019-03-18T09:55:41.316Z,95.63
2019-03-18T09:56:42.355Z,90
2019-03-18T09:57:28.379Z,95.63
2019-03-18T09:58:29.245Z,84.38
2019-03-18T09:59:28.586Z,95.63
2019-03-18T10:00:27.781Z,73.13
2019-03-18T10:01:28.597Z,118.13
2019-03-18T10:02:45.690Z,146.25
2019-03-18T10:02:56.048Z,146.25
2019-03-18T10:03:16.442Z,146.25
2019-03-18T10:03:22.715Z,146.25
2019-03-18T10:04:20.389Z,140.63
2019-03-18T10:05:21.508Z,135
2019-03-18T10:06:26.983Z,123.75
2019-03-18T10:07:23.862Z,106.88
2019-03-18T10:08:28.530Z,140.63
2019-03-18T10:09:32.505Z,146.25
2019-03-18T10:10:32.271Z,168.75
2019-03-18T10:11:32.593Z,174.38
2019-03-18T10:12:32.265Z,208.13
2019-03-18T10:13:32.482Z,230.63
2019-03-18T10:14:33.299Z,253.13
2019-03-18T10:15:34.629Z,286.88
2019-03-18T10:16:40.341Z,298.13
2019-03-18T10:16:46.058Z,298.13
2019-03-18T10:17:49.438Z,303.75
2019-03-18T10:18:47.031Z,303.75
2019-03-18T10:19:47.352Z,343.13
2019-03-18T10:20:47.264Z,376.88
2019-03-18T10:21:48.348Z,405
2019-03-18T10:22:48.851Z,433.13
2019-03-18T10:23:49.924Z,450
2019-03-18T10:24:52.542Z,511.88
2019-03-18T10:25:57.670Z,551.25
2019-03-18T10:26:04.444Z,556.88
2019-03-18T10:27:03.075Z,579.38
2019-03-18T10:28:03.576Z,478.13
2019-03-18T10:29:04.415Z,438.75
2019-03-18T10:30:04.629Z,410.63
2019-03-18T10:31:05.402Z,371.25
2019-03-18T10:32:06.183Z,331.88
2019-03-18T10:33:09.893Z,303.75
2019-03-18T10:34:09.426Z,309.38
2019-03-18T10:35:09.517Z,326.25
2019-03-18T10:36:11.064Z,343.13
2019-03-18T10:37:11.739Z,376.88
2019-03-18T10:38:12.797Z,427.5
2019-03-18T10:39:12.780Z,506.25
2019-03-18T10:40:13.544Z,568.13
2019-03-18T10:41:14.639Z,607.5
2019-03-18T10:42:15.510Z,641.25
2019-03-18T10:43:15.752Z,725.63
2019-03-18T10:44:16.252Z,1068.75
2019-03-18T10:45:17.104Z,1361.25
2019-03-18T10:46:17.597Z,1130.63
2019-03-18T10:47:18.863Z,1046.25
2019-03-18T10:48:20.258Z,905.63
2019-03-18T10:49:21.662Z,748.13
2019-03-18T10:50:22.439Z,613.13
2019-03-18T10:51:36.669Z,511.88
2019-03-18T10:52:35.104Z,500.63
2019-03-18T10:53:48.491Z,523.13
2019-03-18T10:54:33.501Z,556.88
2019-03-18T10:55:31.894Z,624.38
2019-03-18T10:56:36.286Z,838.13
2019-03-18T10:56:49.214Z,860.63
2019-03-18T10:56:56.527Z,871.88
2019-03-18T10:57:54.280Z,787.5
2019-03-18T10:58:59.334Z,826.88
2019-03-18T11:00:02.769Z,2413.13
2019-03-18T11:00:09.375Z,2221.88
2019-03-18T11:01:13.228Z,2975.63
2019-03-18T11:02:25.083Z,3043.13
2019-03-18T11:02:30.478Z,3043.13
2019-03-18T11:03:29.046Z,3071.25
2019-03-18T11:04:31.243Z,3082.5
2019-03-18T11:05:31.858Z,3060
2019-03-18T11:06:32.733Z,2317.5
2019-03-18T11:07:32.546Z,2795.63
2019-03-18T11:08:33.596Z,2981.25
2019-03-18T11:09:35.258Z,2936.25
2019-03-18T11:10:35.724Z,1546.88
2019-03-18T11:11:35.495Z,3003.75
2019-03-18T11:12:36.200Z,2975.63
2019-03-18T11:13:38.315Z,3093.75
2019-03-18T11:14:38.490Z,3071.25
2019-03-18T11:15:39.351Z,3009.38
2019-03-18T11:16:39.768Z,967.5
2019-03-18T11:17:40.818Z,2615.63
2019-03-18T11:18:41.877Z,2660.63
2019-03-18T11:19:43.248Z,2598.75
2019-03-18T11:20:43.340Z,2700
2019-03-18T11:21:44.338Z,2868.75
2019-03-18T11:22:46.004Z,2604.38
2019-03-18T11:23:45.519Z,2514.38
2019-03-18T11:24:45.811Z,2570.63
2019-03-18T11:25:46.444Z,2452.5
2019-03-18T11:26:47.063Z,1884.38
2019-03-18T11:27:47.587Z,1811.25
2019-03-18T11:28:49.549Z,1974.38
2019-03-18T11:29:48.555Z,2261.25
2019-03-18T11:30:49.074Z,2452.5
2019-03-18T11:31:49.860Z,1468.13
2019-03-18T11:32:50.932Z,1468.13
2019-03-18T11:33:51.043Z,1642.5
2019-03-18T11:34:52.127Z,1873.13
2019-03-18T11:35:52.211Z,2323.13
2019-03-18T11:36:52.421Z,573.75
2019-03-18T11:37:53.103Z,770.63
2019-03-18T11:38:57.356Z,1980
2019-03-18T11:39:54.778Z,466.88
2019-03-18T11:40:56.137Z,556.88
2019-03-18T11:42:02.419Z,461.25
2019-03-18T11:42:08.291Z,455.63
2019-03-18T11:43:06.877Z,466.88
2019-03-18T11:44:07.500Z,1243.13
2019-03-18T11:45:10.732Z,466.88
2019-03-18T11:46:11.522Z,438.75
2019-03-18T11:47:12.729Z,2261.25
2019-03-18T11:48:12.575Z,1029.38
2019-03-18T11:49:13.479Z,888.75
2019-03-18T11:50:15.168Z,1513.13
2019-03-18T11:51:16.621Z,1074.38
2019-03-18T11:52:16.793Z,444.38
2019-03-18T11:53:17.694Z,1957.5
2019-03-18T11:54:23.901Z,2131.88
2019-03-18T11:54:33.708Z,2143.13
2019-03-18T11:54:42.159Z,2109.38
2019-03-18T11:55:38.605Z,2261.25
2019-03-18T11:56:39.376Z,1591.88
2019-03-18T11:57:40.325Z,1710
2019-03-18T11:58:41.098Z,1777.5
2019-03-18T11:59:42.427Z,2030.63
2019-03-18T12:00:43.024Z,2210.63
2019-03-18T12:01:44.836Z,556.88
2019-03-18T12:02:45.163Z,511.88
2019-03-18T12:03:45.758Z,523.13
2019-03-18T12:04:47.765Z,551.25
2019-03-18T12:05:46.825Z,596.25
2019-03-18T12:06:48.505Z,624.38
2019-03-18T12:07:48.685Z,618.75
2019-03-18T12:08:49.182Z,573.75
2019-03-18T12:09:50.035Z,534.38
2019-03-18T12:10:52.029Z,483.75
2019-03-18T12:11:53.097Z,433.13
2019-03-18T12:12:53.323Z,410.63
2019-03-18T12:13:54.385Z,405
2019-03-18T12:14:55.154Z,399.38
2019-03-18T12:15:55.167Z,393.75
2019-03-18T12:16:56.009Z,410.63
2019-03-18T12:17:58.542Z,416.25
2019-03-18T12:18:57.033Z,410.63
2019-03-18T12:19:59.039Z,393.75
2019-03-18T12:20:59.717Z,382.5
2019-03-18T12:21:59.942Z,376.88
2019-03-18T12:23:01.267Z,371.25
2019-03-18T12:24:03.603Z,365.63
2019-03-18T12:25:03.120Z,360
2019-03-18T12:26:05.512Z,376.88
2019-03-18T12:27:06.341Z,382.5
2019-03-18T12:28:11.205Z,433.13
2019-03-18T12:28:22.025Z,438.75
2019-03-18T12:28:28.449Z,438.75
2019-03-18T12:29:26.405Z,500.63
2019-03-18T12:30:28.084Z,1023.75
2019-03-18T12:31:27.983Z,618.75
2019-03-18T12:32:35.238Z,2081.25
2019-03-18T12:32:44.470Z,1676.25
2019-03-18T12:33:02.499Z,1051.88
2019-03-18T12:34:00.281Z,945
2019-03-18T12:35:17.178Z,1051.88
2019-03-18T12:36:18.401Z,2660.63
2019-03-18T12:36:24.483Z,2711.25
2019-03-18T12:37:23.070Z,2188.13
2019-03-18T12:38:26.115Z,2508.75
2019-03-18T12:39:27.814Z,2446.88
2019-03-18T12:40:34.665Z,2396.25
2019-03-18T12:40:40.794Z,2396.25
2019-03-18T12:41:52.474Z,1192.5
2019-03-18T12:42:52.314Z,590.63
2019-03-18T12:43:52.589Z,556.88
2019-03-18T12:44:56.021Z,1209.38
2019-03-18T12:45:56.873Z,601.88
2019-03-18T12:46:57.380Z,770.63
2019-03-18T12:47:57.863Z,2413.13
2019-03-18T12:48:58.457Z,2137.5
2019-03-18T12:49:59.616Z,1800
2019-03-18T12:51:00.002Z,1608.75
2019-03-18T12:52:03.061Z,1108.13
2019-03-18T12:53:02.624Z,1305
2019-03-18T12:54:04.960Z,1001.25
2019-03-18T12:55:07.470Z,697.5
2019-03-18T12:56:11.386Z,1130.63
2019-03-18T12:56:21.850Z,1198.13
2019-03-18T12:56:31.554Z,1428.75
2019-03-18T12:56:41.705Z,1743.75
2019-03-18T12:56:49.303Z,1878.75
2019-03-18T12:57:49.240Z,556.88
2019-03-18T12:58:49.365Z,433.13
2019-03-18T12:59:50.482Z,416.25
2019-03-18T13:00:55.912Z,444.38
2019-03-18T13:01:24.704Z,455.63
2019-03-18T13:02:21.150Z,444.38
2019-03-18T13:03:21.939Z,421.88
2019-03-18T13:04:23.477Z,399.38
2019-03-18T13:05:24.388Z,393.75
2019-03-18T13:06:25.492Z,382.5